CPX967 Details

Departure: Travis Air Force Base (KSUU)
Arrival: Seattle-Tacoma International Airport (KSEA)
Route: WAPEX RBL J65 LMT HAWKZ7
Notes: EMPTY | NON-REVENUE REPOSITIONING LEG


Current Weather Information
KSUU 220958Z AUTO 22010KT 10SM CLR 08/06 A3014 RMK AO2 SLP213 T00780059 $
KSEA 221153Z 25004KT 10SM BKN046 BKN120 09/06 A2996 RMK AO2 SLP152 T00890056 10106 20083 56018